createdAt,value
2023-02-24T00:02:00.394Z,85.22
2023-02-24T00:04:52.072Z,85.31
2023-02-24T00:07:41.287Z,84.86
2023-02-24T00:10:31.498Z,86.36
2023-02-24T00:13:22.553Z,87.34
2023-02-24T00:16:13.426Z,88.49
2023-02-24T00:19:03.618Z,89.03
2023-02-24T00:21:54.556Z,88.87
2023-02-24T00:24:43.917Z,88.39
2023-02-24T00:27:33.590Z,87.59
2023-02-24T00:30:24.198Z,87.03
2023-02-24T00:33:14.714Z,86.56
2023-02-24T00:36:11.780Z,86.94
2023-02-24T00:39:09.361Z,87.46
2023-02-24T00:42:04.817Z,88.54
2023-02-24T00:44:55.286Z,88.46
2023-02-24T00:47:44.822Z,88.26
2023-02-24T00:50:35.618Z,88.46
2023-02-24T00:53:25.119Z,88.43
2023-02-24T00:56:16.498Z,89.38
2023-02-24T00:59:05.896Z,89.77
2023-02-24T01:01:56.002Z,88.95
2023-02-24T01:04:46.376Z,88.62
2023-02-24T01:07:37.698Z,89.26
2023-02-24T01:10:30.675Z,90.32
2023-02-24T01:13:19.372Z,90.84
2023-02-24T01:16:09.667Z,91.01
2023-02-24T01:18:58.725Z,90.66
2023-02-24T01:21:48.081Z,90.34
2023-02-24T01:24:42.570Z,90.72
2023-02-24T01:27:32.612Z,91.76
2023-02-24T01:30:22.844Z,92.49
2023-02-24T01:33:14.840Z,92.88
2023-02-24T01:36:10.471Z,92.54
2023-02-24T01:39:01.530Z,92.45
2023-02-24T01:41:53.435Z,92.33
2023-02-24T01:45:13.352Z,92.01
2023-02-24T01:48:05.460Z,91.89
2023-02-24T01:50:55.488Z,91.88
2023-02-24T01:53:44.682Z,91.37
2023-02-24T01:56:33.937Z,91.05
2023-02-24T01:59:26.129Z,91.09
2023-02-24T02:02:16.087Z,91.59
2023-02-24T02:05:09.589Z,90.90
2023-02-24T02:07:58.784Z,91.31
2023-02-24T02:10:48.668Z,92.29
2023-02-24T02:13:39.529Z,92.20
2023-02-24T02:16:53.598Z,92.21
2023-02-24T02:20:16.788Z,92.29
2023-02-24T02:23:32.382Z,92.20
2023-02-24T02:26:40.642Z,91.98
2023-02-24T02:30:13.840Z,92.49
2023-02-24T02:33:55.129Z,93.09
2023-02-24T02:36:55.281Z,92.94
2023-02-24T02:39:50.772Z,92.17
2023-02-24T02:42:42.957Z,92.32
2023-02-24T02:45:40.405Z,92.33
2023-02-24T02:48:34.619Z,92.36
2023-02-24T02:51:28.215Z,93.40
2023-02-24T02:54:23.360Z,94.50
2023-02-24T02:57:15.698Z,94.27
2023-02-24T03:00:13.597Z,93.71
2023-02-24T03:03:07.163Z,93.71
2023-02-24T03:05:59.170Z,93.66
2023-02-24T03:08:53.680Z,93.40
2023-02-24T03:11:45.536Z,93.46
2023-02-24T03:14:37.726Z,93.36
2023-02-24T03:17:29.638Z,93.61
2023-02-24T03:20:22.897Z,93.79
2023-02-24T03:23:16.998Z,94.63
2023-02-24T03:26:17.203Z,94.67
2023-02-24T03:29:17.235Z,94.33
2023-02-24T03:32:11.223Z,93.95
2023-02-24T03:35:03.272Z,94.21
2023-02-24T03:37:55.382Z,93.65
2023-02-24T03:40:45.106Z,92.81
2023-02-24T03:43:45.543Z,92.60
2023-02-24T03:46:36.833Z,92.08
2023-02-24T03:49:26.597Z,92.05
2023-02-24T03:52:23.282Z,91.98
2023-02-24T03:55:19.740Z,91.56
2023-02-24T03:58:16.703Z,92.03
2023-02-24T04:01:13.857Z,91.43
2023-02-24T04:04:08.713Z,91.22
2023-02-24T04:07:18.577Z,90.79
2023-02-24T04:10:12.948Z,90.65
2023-02-24T04:13:13.106Z,90.66
2023-02-24T04:16:06.146Z,90.39
2023-02-24T04:18:58.301Z,90.60
2023-02-24T04:21:49.915Z,91.12
2023-02-24T04:24:46.212Z,90.88
2023-02-24T04:27:35.692Z,90.83
2023-02-24T04:30:36.691Z,90.26
2023-02-24T04:33:26.966Z,90.48
2023-02-24T04:36:15.846Z,90.35
2023-02-24T04:39:07.772Z,89.93
2023-02-24T04:41:58.167Z,89.51
2023-02-24T04:44:47.842Z,90.53
2023-02-24T04:47:37.387Z,89.82
2023-02-24T04:50:27.077Z,89.46
2023-02-24T04:58:29.764Z,89.75
2023-02-24T05:01:19.937Z,89.45
2023-02-24T05:04:09.959Z,88.97
2023-02-24T05:06:59.400Z,89.38
2023-02-24T05:09:49.222Z,89.17
2023-02-24T05:12:40.275Z,90.88
2023-02-24T05:15:32.317Z,90.28
2023-02-24T05:18:24.066Z,90.83
2023-02-24T05:21:31.943Z,92.08
2023-02-24T05:24:21.021Z,92.95
2023-02-24T05:27:10.847Z,92.96
2023-02-24T05:29:59.893Z,93.96
2023-02-24T05:32:50.358Z,94.50
2023-02-24T05:35:39.683Z,95.37
2023-02-24T05:38:28.605Z,94.94
2023-02-24T05:41:20.249Z,94.91
2023-02-24T05:44:12.374Z,95.31
2023-02-24T05:47:01.765Z,94.67
2023-02-24T05:49:54.477Z,95.01
2023-02-24T05:52:45.931Z,94.42
2023-02-24T05:55:36.605Z,93.73
2023-02-24T05:58:29.278Z,93.04
2023-02-24T06:01:19.527Z,92.78
2023-02-24T06:04:10.062Z,91.99
2023-02-24T06:07:03.858Z,91.54
2023-02-24T06:09:54.791Z,91.58
2023-02-24T06:12:43.725Z,92.07
2023-02-24T06:15:33.093Z,92.05
2023-02-24T06:18:22.329Z,92.31
2023-02-24T06:21:12.790Z,92.00
2023-02-24T06:24:04.960Z,94.23
2023-02-24T06:26:56.463Z,93.26
2023-02-24T06:29:50.201Z,92.16
2023-02-24T06:32:39.540Z,92.03
2023-02-24T06:35:28.577Z,91.82
2023-02-24T06:38:17.854Z,91.18
2023-02-24T06:41:11.078Z,92.08
2023-02-24T06:44:00.218Z,93.44
2023-02-24T06:46:49.313Z,94.77
2023-02-24T06:49:39.145Z,94.97
2023-02-24T06:52:30.046Z,94.72
2023-02-24T06:55:33.350Z,95.61
2023-02-24T06:58:25.029Z,96.60
2023-02-24T07:01:15.264Z,96.87
2023-02-24T07:04:20.993Z,96.32
2023-02-24T07:07:14.648Z,96.36
2023-02-24T07:10:04.411Z,96.00
2023-02-24T07:12:55.149Z,96.72
2023-02-24T07:15:51.577Z,97.16
2023-02-24T07:18:41.824Z,96.81
2023-02-24T07:21:39.933Z,96.50
2023-02-24T07:24:36.209Z,96.47
2023-02-24T07:27:27.884Z,96.67
2023-02-24T07:30:18.419Z,96.64
2023-02-24T07:33:10.607Z,96.56
2023-02-24T07:35:59.702Z,96.34
2023-02-24T07:38:48.985Z,95.76
2023-02-24T07:41:38.088Z,96.32
2023-02-24T07:44:29.494Z,96.23
2023-02-24T07:47:18.610Z,96.03
2023-02-24T07:50:14.675Z,96.15
2023-02-24T07:53:05.356Z,96.67
2023-02-24T07:55:55.121Z,96.61
2023-02-24T07:58:45.478Z,96.12
2023-02-24T08:01:39.196Z,95.69
2023-02-24T08:04:30.289Z,96.30
2023-02-24T08:07:25.246Z,95.85
2023-02-24T08:10:25.559Z,95.06
2023-02-24T08:13:14.508Z,94.04
2023-02-24T08:16:06.729Z,94.40
2023-02-24T08:18:57.949Z,94.76
2023-02-24T08:21:50.567Z,95.15
2023-02-24T08:24:43.954Z,96.02
2023-02-24T08:27:38.919Z,96.11
2023-02-24T08:30:30.131Z,95.48
2023-02-24T08:33:21.602Z,96.12
2023-02-24T08:36:10.831Z,95.90
2023-02-24T08:38:59.923Z,96.69
2023-02-24T08:41:51.629Z,96.66
2023-02-24T08:44:42.426Z,96.61
2023-02-24T08:47:36.170Z,96.35
2023-02-24T08:50:31.219Z,96.76
2023-02-24T08:53:20.350Z,96.86
2023-02-24T08:56:11.642Z,96.56
2023-02-24T08:59:06.460Z,96.39
2023-02-24T09:02:14.886Z,96.13
2023-02-24T09:05:13.197Z,95.98
2023-02-24T09:08:04.856Z,96.39
2023-02-24T09:10:53.584Z,96.65
2023-02-24T09:13:51.798Z,96.64
2023-02-24T09:16:52.482Z,96.28
2023-02-24T09:19:56.900Z,95.90
2023-02-24T09:22:58.186Z,96.06
2023-02-24T09:25:50.707Z,95.23
2023-02-24T09:28:48.763Z,95.51
2023-02-24T09:31:48.347Z,95.48
2023-02-24T09:34:44.146Z,94.79
2023-02-24T09:37:33.038Z,95.33
2023-02-24T09:40:39.546Z,94.52
2023-02-24T09:43:30.983Z,94.67
2023-02-24T09:46:19.792Z,94.34
2023-02-24T09:49:15.387Z,93.85
2023-02-24T09:52:09.172Z,93.61
2023-02-24T09:55:11.743Z,93.88
2023-02-24T09:58:25.008Z,92.35
2023-02-24T10:01:33.860Z,92.68
2023-02-24T10:04:36.271Z,92.13
2023-02-24T10:07:36.247Z,92.31
2023-02-24T10:10:29.215Z,91.95
2023-02-24T10:13:30.458Z,92.04
2023-02-24T10:16:24.249Z,92.02
2023-02-24T10:19:19.935Z,92.15
2023-02-24T10:22:27.674Z,91.19
2023-02-24T10:25:41.817Z,91.04
2023-02-24T10:28:36.900Z,92.33
2023-02-24T10:31:30.779Z,92.24
2023-02-24T10:34:25.383Z,92.32
2023-02-24T10:37:27.653Z,92.25
2023-02-24T10:40:26.604Z,91.02
2023-02-24T10:43:19.650Z,91.35
2023-02-24T10:46:17.514Z,90.98
2023-02-24T10:49:10.152Z,90.81
2023-02-24T10:51:59.105Z,91.25
2023-02-24T10:55:05.300Z,91.51
2023-02-24T10:58:06.142Z,92.23
2023-02-24T11:01:13.678Z,91.99
2023-02-24T11:04:22.836Z,92.45
2023-02-24T11:07:24.572Z,90.97
2023-02-24T11:10:19.119Z,91.44
2023-02-24T11:13:31.442Z,91.13
2023-02-24T11:16:39.384Z,90.85
2023-02-24T11:19:29.943Z,90.94
2023-02-24T11:22:22.252Z,89.83
2023-02-24T11:25:22.898Z,90.21
2023-02-24T11:28:21.623Z,90.49
2023-02-24T11:31:22.171Z,89.84
2023-02-24T11:34:20.698Z,90.04
2023-02-24T11:37:16.250Z,89.98
2023-02-24T11:40:09.917Z,90.10
2023-02-24T11:43:01.168Z,90.58
2023-02-24T11:45:52.590Z,89.53
2023-02-24T11:48:45.306Z,89.94
2023-02-24T11:51:38.077Z,89.43
2023-02-24T11:54:27.340Z,89.57
2023-02-24T11:57:20.842Z,89.60
2023-02-24T12:00:20.233Z,87.87
2023-02-24T12:03:15.844Z,89.28
2023-02-24T12:06:15.010Z,88.45
2023-02-24T12:09:12.248Z,87.97
2023-02-24T12:12:03.987Z,87.69
2023-02-24T12:14:55.392Z,88.04
2023-02-24T12:17:51.891Z,87.50
2023-02-24T12:20:43.398Z,86.67
2023-02-24T12:23:34.374Z,86.68
2023-02-24T12:26:27.353Z,87.23
2023-02-24T12:29:42.692Z,86.60
2023-02-24T12:32:41.480Z,85.22
2023-02-24T12:35:36.447Z,84.54
2023-02-24T12:38:38.573Z,85.42
2023-02-24T12:41:48.205Z,85.04
2023-02-24T12:44:45.669Z,84.84
2023-02-24T12:47:43.094Z,84.65
2023-02-24T12:50:38.338Z,84.75
2023-02-24T12:53:32.518Z,85.00
2023-02-24T12:56:24.268Z,84.62
2023-02-24T12:59:18.163Z,83.80
2023-02-24T13:02:09.398Z,84.10
2023-02-24T13:05:04.561Z,83.61
2023-02-24T13:08:08.604Z,83.65
2023-02-24T13:11:03.822Z,83.15
2023-02-24T13:13:58.025Z,83.75
2023-02-24T13:16:48.275Z,83.08
2023-02-24T13:19:37.895Z,82.81
2023-02-24T13:22:32.873Z,82.96
2023-02-24T13:25:24.042Z,82.71
2023-02-24T13:28:26.257Z,83.14
2023-02-24T13:31:15.109Z,82.52
2023-02-24T13:34:14.487Z,81.59
2023-02-24T13:37:04.434Z,82.80
2023-02-24T13:39:53.052Z,82.54
2023-02-24T13:42:42.148Z,82.30
2023-02-24T13:45:32.082Z,83.43
2023-02-24T13:48:32.430Z,82.94
2023-02-24T13:51:41.582Z,81.75
2023-02-24T13:55:00.316Z,82.39
2023-02-24T13:57:59.527Z,82.24
2023-02-24T14:00:59.572Z,83.16
2023-02-24T14:04:06.738Z,83.11
2023-02-24T14:06:59.023Z,82.47
2023-02-24T14:09:52.771Z,81.82
2023-02-24T14:12:43.675Z,81.83
2023-02-24T14:15:32.835Z,82.39
2023-02-24T14:18:23.711Z,81.99
2023-02-24T14:21:22.445Z,81.75
2023-02-24T14:24:15.151Z,82.41
2023-02-24T14:27:04.147Z,81.17
2023-02-24T14:29:54.309Z,81.79
2023-02-24T14:32:45.279Z,81.53
2023-02-24T14:35:37.276Z,81.51
2023-02-24T14:38:31.613Z,81.78
2023-02-24T14:41:23.552Z,81.48
2023-02-24T14:44:22.159Z,81.79
2023-02-24T14:47:12.242Z,81.46
2023-02-24T14:50:02.675Z,81.94
2023-02-24T14:52:55.440Z,81.41
2023-02-24T14:55:48.170Z,81.12
2023-02-24T14:58:42.607Z,82.14
2023-02-24T15:01:34.160Z,81.09
2023-02-24T15:04:32.213Z,81.60
2023-02-24T15:07:24.068Z,81.21
2023-02-24T15:10:21.203Z,81.30
2023-02-24T15:13:14.228Z,81.80
2023-02-24T15:16:10.238Z,81.94
2023-02-24T15:19:01.562Z,81.14
2023-02-24T15:21:50.490Z,81.97
2023-02-24T15:24:39.076Z,82.46
2023-02-24T15:27:29.433Z,82.43
2023-02-24T15:30:31.962Z,83.42
2023-02-24T15:33:23.812Z,82.96
2023-02-24T15:36:13.955Z,83.36
2023-02-24T15:39:06.167Z,83.54
2023-02-24T15:42:07.826Z,84.24
2023-02-24T15:44:57.962Z,84.34
2023-02-24T15:47:47.029Z,84.91
2023-02-24T15:50:39.203Z,85.13
2023-02-24T15:53:27.679Z,86.76
2023-02-24T15:56:17.275Z,87.92
2023-02-24T15:59:06.141Z,89.69
2023-02-24T16:01:54.923Z,89.47
2023-02-24T16:04:44.003Z,91.27
2023-02-24T16:07:36.362Z,91.30
2023-02-24T16:10:27.829Z,92.33
2023-02-24T16:13:18.744Z,92.67
2023-02-24T16:16:08.158Z,91.64
2023-02-24T16:18:57.194Z,92.62
2023-02-24T16:21:46.614Z,92.54
2023-02-24T16:24:36.578Z,92.38
2023-02-24T16:27:26.138Z,92.31
2023-02-24T16:30:22.123Z,91.27
2023-02-24T16:33:13.078Z,91.99
2023-02-24T16:36:02.154Z,91.37
2023-02-24T16:38:51.778Z,91.26
2023-02-24T16:41:42.090Z,92.03
2023-02-24T16:44:30.894Z,91.24
2023-02-24T16:47:23.130Z,92.30
2023-02-24T16:50:19.697Z,92.40
2023-02-24T16:53:09.158Z,91.49
2023-02-24T16:55:58.044Z,91.46
2023-02-24T16:58:48.620Z,90.83
2023-02-24T17:01:37.416Z,92.87
2023-02-24T17:04:26.138Z,93.00
2023-02-24T17:07:16.216Z,92.35
2023-02-24T17:10:05.138Z,92.82
2023-02-24T17:12:54.113Z,92.51
2023-02-24T17:15:44.342Z,92.91
2023-02-24T17:18:32.991Z,93.67
2023-02-24T17:21:21.773Z,93.07
2023-02-24T17:24:15.138Z,93.68
2023-02-24T17:27:04.420Z,93.64
2023-02-24T17:29:53.238Z,93.81
2023-02-24T17:32:43.507Z,94.25
2023-02-24T17:35:32.533Z,93.94
2023-02-24T17:38:23.279Z,94.00
2023-02-24T17:41:11.905Z,93.85
2023-02-24T17:44:00.705Z,93.63
2023-02-24T17:46:49.351Z,93.76
2023-02-24T17:49:39.915Z,93.25
2023-02-24T17:52:29.455Z,93.86
2023-02-24T17:55:18.661Z,93.39
2023-02-24T17:58:07.453Z,92.75
2023-02-24T18:00:56.483Z,93.31
2023-02-24T18:03:45.467Z,93.01
2023-02-24T18:06:36.219Z,93.22
2023-02-24T18:09:25.055Z,93.44
2023-02-24T18:12:14.133Z,93.54
2023-02-24T18:15:08.551Z,94.01
2023-02-24T18:17:57.848Z,93.51
2023-02-24T18:20:46.605Z,93.48
2023-02-24T18:23:38.259Z,93.92
2023-02-24T18:26:27.309Z,93.51
2023-02-24T18:29:16.097Z,93.43
2023-02-24T18:32:05.245Z,94.13
2023-02-24T18:34:54.374Z,93.08
2023-02-24T18:37:43.758Z,92.79
2023-02-24T18:40:34.158Z,93.22
2023-02-24T18:43:22.782Z,93.10
2023-02-24T18:46:13.974Z,93.46
2023-02-24T18:49:03.685Z,93.35
2023-02-24T18:51:52.798Z,92.97
2023-02-24T18:54:41.691Z,93.17
2023-02-24T18:57:32.056Z,93.52
2023-02-24T19:00:21.649Z,93.32
2023-02-24T19:03:10.791Z,93.38
2023-02-24T19:05:59.635Z,93.87
2023-02-24T19:08:49.491Z,94.84
2023-02-24T19:11:39.206Z,94.40
2023-02-24T19:14:29.594Z,94.32
2023-02-24T19:17:18.742Z,96.42
2023-02-24T19:20:09.688Z,95.05
2023-02-24T19:22:58.785Z,96.47
2023-02-24T19:25:47.710Z,97.32
2023-02-24T19:28:36.479Z,98.12
2023-02-24T19:31:28.997Z,96.27
2023-02-24T19:34:18.025Z,96.05
2023-02-24T19:37:06.793Z,95.12
2023-02-24T19:39:56.159Z,95.56
2023-02-24T19:42:47.116Z,94.32
2023-02-24T19:45:36.132Z,94.76
2023-02-24T19:48:26.128Z,94.37
2023-02-24T19:51:16.637Z,93.60
2023-02-24T19:54:06.371Z,94.32
2023-02-24T19:56:57.984Z,94.33
2023-02-24T19:59:46.809Z,95.55
2023-02-24T20:02:35.766Z,95.43
2023-02-24T20:05:26.117Z,96.14
2023-02-24T20:08:15.035Z,96.04
2023-02-24T20:11:06.479Z,95.82
2023-02-24T20:13:55.780Z,95.30
2023-02-24T20:16:46.829Z,95.51
2023-02-24T20:19:35.801Z,95.14
2023-02-24T20:22:26.673Z,94.31
2023-02-24T20:25:16.073Z,94.66
2023-02-24T20:28:05.178Z,94.91
2023-02-24T20:30:55.020Z,93.79
2023-02-24T20:33:44.562Z,94.07
2023-02-24T20:36:34.600Z,94.03
2023-02-24T20:39:25.926Z,93.80
2023-02-24T20:42:15.312Z,93.27
2023-02-24T20:45:05.147Z,92.93
2023-02-24T20:47:54.200Z,93.11
2023-02-24T20:50:43.632Z,93.75
2023-02-24T20:53:37.911Z,94.93
2023-02-24T20:56:34.270Z,93.53
2023-02-24T20:59:23.547Z,94.51
2023-02-24T21:02:13.301Z,94.09
2023-02-24T21:05:02.678Z,94.67
2023-02-24T21:07:51.849Z,94.49
2023-02-24T21:10:44.993Z,93.82
2023-02-24T21:13:36.552Z,93.87
2023-02-24T21:16:27.001Z,93.24
2023-02-24T21:19:19.268Z,93.98
2023-02-24T21:22:09.359Z,94.30
2023-02-24T21:24:58.401Z,94.53
2023-02-24T21:27:48.702Z,94.87
2023-02-24T21:30:44.125Z,94.94
2023-02-24T21:33:33.422Z,95.90
2023-02-24T21:36:26.530Z,95.32
2023-02-24T21:39:15.784Z,95.70
2023-02-24T21:42:04.942Z,95.82
2023-02-24T21:44:57.379Z,96.28
2023-02-24T21:47:48.132Z,95.87
2023-02-24T21:50:37.973Z,95.97
2023-02-24T21:53:28.373Z,96.23
2023-02-24T21:56:19.846Z,96.38
2023-02-24T21:59:11.397Z,95.09
2023-02-24T22:02:01.025Z,95.90
2023-02-24T22:04:52.615Z,95.22
2023-02-24T22:07:41.774Z,94.47
2023-02-24T22:10:30.943Z,96.08
2023-02-24T22:13:20.209Z,94.68
2023-02-24T22:16:11.175Z,94.83
2023-02-24T22:19:01.212Z,94.78
2023-02-24T22:21:51.809Z,94.10
2023-02-24T22:24:41.884Z,93.57
2023-02-24T22:27:31.892Z,93.38
2023-02-24T22:30:21.160Z,93.14
2023-02-24T22:33:10.548Z,92.90
2023-02-24T22:36:03.620Z,92.45
2023-02-24T22:38:54.857Z,93.79
2023-02-24T22:41:45.643Z,93.87
2023-02-24T22:44:34.937Z,93.47
2023-02-24T22:47:24.319Z,94.45
2023-02-24T22:50:13.648Z,92.94
2023-02-24T22:53:02.809Z,92.36
2023-02-24T22:55:53.294Z,92.07
2023-02-24T22:58:42.409Z,91.33
2023-02-24T23:01:33.445Z,91.26
2023-02-24T23:04:22.605Z,93.44
2023-02-24T23:07:12.150Z,93.09
2023-02-24T23:10:01.372Z,91.92
2023-02-24T23:12:53.207Z,93.54
2023-02-24T23:15:42.544Z,93.68
2023-02-24T23:18:32.485Z,93.71
2023-02-24T23:21:24.255Z,94.56
2023-02-24T23:24:15.173Z,94.35
2023-02-24T23:27:04.448Z,93.93
2023-02-24T23:29:55.250Z,94.57
2023-02-24T23:32:45.174Z,94.21
2023-02-24T23:35:36.321Z,94.53
2023-02-24T23:38:26.697Z,95.18
2023-02-24T23:41:16.798Z,94.13
2023-02-24T23:44:06.950Z,94.10
2023-02-24T23:46:58.812Z,93.94
2023-02-24T23:49:48.815Z,94.19
2023-02-24T23:52:38.558Z,94.57
2023-02-24T23:55:30.740Z,94.96
2023-02-24T23:58:20.301Z,94.18
